Airfield :
LOGIN :

Register | Disclaimer

   EN    FR    IT 

 










Legend :    VFR   Marginal VFR   IFR   Intensive IFR   Very Intensive IFR
Visi :
Ceiling :
>= 8 km
>= 3000ft
5 to 8 km
1000 to 3000 ft
1500m to 5 km
500 to 1000 ft
800 to 1500m
200 to 500 ft
< 800m
< 200 ft
Symbols :   Thunderstorms  Fog  Heavy snow  Heavy precipitations  Wind > 20 kt
SIGMETs :     Misc.  Thunderstorms  Icing  Turbulence  Mountain Waves  Volcanic Ashes







- Airport Elevation : 392 ft
- IATA code : CDG
- Download approach charts


LFPG - Paris-Aeroport Charles De Gaulle

CURRENT METAR :
  • 220030Z 23017KT 9999 SCT023 10/06 Q1015 NOSIG

EXPIRED METARs :
  • 220000Z 23018KT 200V270 9999 FEW023 11/06 Q1015 NOSIG
  • 212330Z 23016KT 9999 FEW023 11/06 Q1015 NOSIG
  • 212300Z 23016KT 9999 SCT025 11/07 Q1015 NOSIG
  • 212230Z 23016KT 9999 FEW028 11/06 Q1015 NOSIG
  • 212200Z 23017KT 9999 FEW028 11/07 Q1015 NOSIG

TAF AMD TAF LFPG
Valid from the 22 at 00:00 until the 23 at 06:00 UTC


212341Z 2200/2306 22015G25KT CAVOK
BECMG 2210/2212 SCT012TCU
BECMG 2216/2218 26010KT CAVOK
BECMG 2221/2223 BKN006
PROB30
TEMPO 2305/2306 BKN003 TX12/2213Z TN09/2305Z
ATIS : +33 1 48 62 10 92
No reported NOTAMs for that airfield.
1 SIGMET reported for the Paris FIR (LFFF) :
 
Severe turbulence
LFFF SIGMET 7 VALID 212200/220200 LFPW
LFFF PARIS FIR/UIR SEV TURB FCST WI N4900 W00015 - N5000 W00015 - N5115 E00200 - N5045 E00300 - N4900 E00015 SFC/FL060 STNR WKN=



MET'MAP, your aeronautical weather chart ! - Copyright ORBIFLY December 2007 - Disclaimer

ORBIFLY MET'MAP TEAM :

Programming & Development : Alexandra Zaïnal
Concept & Development : Baudouin d'Aumeries
Co-Development & Prog : Marc-Olivier Méhu
Technical & hardware support : Manuel Goepfert

Contact : metmap@orbifly.com




SOURCES & CREDITS :

   NOAA